Time;durP1;ratioP1;P1;durP2;ratioP2;P2;SDS_P1;SDS_P2;PMS_P1;PMS_P2;Temp;Humidity;BMP_temperature;BMP_pressure;BME280_temperature;BME280_humidity;BME280_pressure;Samples;Min_cycle;Max_cycle;Signal;HPM_P1;HPM_P2
2021/03/22 00:01:14;;;;;;;87.70;55.25;;;128.90;2252.80;;;;;;5005859;28;20396;-62
2021/03/22 00:03:40;;;;;;;79.53;53.80;;;128.60;2252.80;;;;;;4994295;28;20015;-63
2021/03/22 00:06:06;;;;;;;90.43;59.78;;;128.60;2252.80;;;;;;5003913;28;20056;-62
2021/03/22 00:08:33;;;;;;;91.65;59.55;;;128.90;2252.80;;;;;;5011727;28;20022;-63
2021/03/22 00:10:59;;;;;;;90.03;59.70;;;153.80;2252.80;;;;;;5012568;28;20377;-62
2021/03/22 00:13:26;;;;;;;88.45;54.85;;;153.70;2252.80;;;;;;5012865;28;20480;-63
2021/03/22 00:15:55;;;;;;;89.07;57.72;;;153.60;2252.80;;;;;;5012489;28;20033;-63
2021/03/22 00:18:25;;;;;;;80.70;52.60;;;128.70;2252.80;;;;;;5007921;28;20022;-64
2021/03/22 00:20:51;;;;;;;94.00;58.92;;;128.90;2252.80;;;;;;5012437;28;20022;-63
2021/03/22 00:23:17;;;;;;;80.95;53.08;;;153.60;2252.80;;;;;;5012660;28;20026;-63
2021/03/22 00:25:43;;;;;;;101.22;70.30;;;128.90;2252.80;;;;;;5012122;28;20025;-63
2021/03/22 00:28:10;;;;;;;77.15;50.75;;;153.80;2252.80;;;;;;5012595;28;20029;-64
2021/03/22 00:30:40;;;;;;;91.82;60.10;;;153.60;2252.80;;;;;;5012146;28;20018;-62
2021/03/22 00:33:08;;;;;;;81.57;55.70;;;153.60;2252.80;;;;;;5009047;28;20088;-63
2021/03/22 00:35:34;;;;;;;108.88;76.28;;;128.90;2252.80;;;;;;4994803;28;20058;-61
2021/03/22 00:38:00;;;;;;;98.93;65.65;;;128.90;2252.80;;;;;;5012339;28;20029;-63
2021/03/22 00:40:29;;;;;;;74.10;49.83;;;153.90;2252.80;;;;;;5012349;28;20034;-61
2021/03/22 00:42:55;;;;;;;74.45;49.15;;;128.70;2252.80;;;;;;4998688;28;20053;-62
2021/03/22 00:45:22;;;;;;;72.28;48.85;;;128.90;2252.80;;;;;;5012532;28;20081;-63
2021/03/22 00:47:49;;;;;;;91.70;59.10;;;128.70;2252.80;;;;;;5011891;28;20030;-63
2021/03/22 00:50:30;;;;;;;74.88;44.40;;;153.60;2252.80;;;;;;5012031;28;20117;-62
2021/03/22 00:52:55;;;;;;;70.18;44.30;;;128.90;2252.80;;;;;;5012172;28;20049;-62
2021/03/22 00:55:23;;;;;;;73.95;45.45;;;128.90;2252.80;;;;;;5001847;28;20146;-64
2021/03/22 00:57:49;;;;;;;73.40;45.45;;;153.60;2252.80;;;;;;4994473;28;20037;-65
2021/03/22 01:00:37;;;;;;;71.82;44.40;;;128.90;2252.80;;;;;;5008122;28;20069;-66
2021/03/22 01:03:06;;;;;;;74.65;49.35;;;128.90;2252.80;;;;;;5012600;28;20033;-67
2021/03/22 01:05:32;;;;;;;69.68;44.47;;;153.60;2252.80;;;;;;5010005;28;20034;-65
2021/03/22 01:07:57;;;;;;;65.95;42.17;;;153.60;2252.80;;;;;;5012148;28;20084;-66
2021/03/22 01:10:29;;;;;;;63.60;42.35;;;153.60;2252.80;;;;;;5011818;28;20302;-65
2021/03/22 01:12:56;;;;;;;65.40;40.72;;;153.70;2252.80;;;;;;5012520;28;20033;-64
2021/03/22 01:15:23;;;;;;;60.88;39.88;;;153.80;2252.80;;;;;;5012267;28;20018;-64
2021/03/22 01:17:49;;;;;;;63.08;43.40;;;153.70;2252.80;;;;;;5012405;28;20567;-64
2021/03/22 01:20:23;;;;;;;59.55;40.25;;;153.60;2252.80;;;;;;5012189;28;20062;-64
2021/03/22 01:22:49;;;;;;;58.67;38.63;;;128.90;2252.80;;;;;;5012233;28;20121;-64
2021/03/22 01:25:15;;;;;;;56.10;38.28;;;153.60;2252.80;;;;;;5012160;28;20097;-64
2021/03/22 01:27:42;;;;;;;59.47;39.65;;;153.70;2252.80;;;;;;5012399;28;20057;-64
2021/03/22 01:30:15;;;;;;;53.85;38.13;;;153.70;2252.80;;;;;;5012567;28;20069;-64
2021/03/22 01:32:41;;;;;;;54.40;37.25;;;153.60;2252.80;;;;;;5010949;28;20481;-64
2021/03/22 01:35:07;;;;;;;55.10;37.22;;;128.80;2252.80;;;;;;5012247;28;20160;-65
2021/03/22 01:37:33;;;;;;;49.85;34.30;;;128.80;2252.80;;;;;;5012109;28;20379;-64
2021/03/22 01:39:58;;;;;;;61.67;41.67;;;128.90;2252.80;;;;;;5010485;28;20042;-64
2021/03/22 01:42:35;;;;;;;49.35;34.47;;;128.90;2252.80;;;;;;5001668;28;20038;-64
2021/03/22 01:45:05;;;;;;;51.75;36.33;;;128.90;2252.80;;;;;;5010504;28;20496;-64
2021/03/22 01:47:32;;;;;;;44.92;32.75;;;128.90;2252.80;;;;;;5012531;28;20026;-62
2021/03/22 01:50:19;;;;;;;43.83;31.45;;;128.80;2252.80;;;;;;5012075;28;20428;-63
2021/03/22 01:52:46;;;;;;;45.22;32.47;;;153.60;2252.80;;;;;;5012074;28;20034;-64
2021/03/22 01:55:14;;;;;;;47.28;32.72;;;153.60;2252.80;;;;;;5011926;28;20025;-65
2021/03/22 01:57:42;;;;;;;48.15;31.95;;;153.60;2252.80;;;;;;5012299;28;20429;-65
2021/03/22 02:00:14;;;;;;;42.70;33.05;;;153.60;2252.80;;;;;;5012306;28;20112;-65
2021/03/22 02:02:41;;;;;;;;;;;153.70;2252.80;;;;;;5012524;28;20087;-63
2021/03/22 02:05:09;;;;;;;50.97;34.33;;;153.70;2252.80;;;;;;5011845;28;20398;-65
2021/03/22 02:07:35;;;;;;;49.13;33.60;;;153.60;2252.80;;;;;;5011913;28;20018;-65
2021/03/22 02:10:00;;;;;;;45.63;33.38;;;128.90;2252.80;;;;;;5011753;28;20508;-65
2021/03/22 02:12:28;;;;;;;47.17;33.45;;;128.90;2252.80;;;;;;5012001;28;20510;-65
2021/03/22 02:14:54;;;;;;;51.17;35.10;;;153.70;2252.80;;;;;;5012053;28;20038;-67
2021/03/22 02:17:49;;;;;;;52.78;37.47;;;153.90;2252.80;;;;;;5012475;28;20022;-65
2021/03/22 02:20:35;;;;;;;55.92;37.10;;;153.80;2252.80;;;;;;4973940;28;20053;-64
2021/03/22 02:23:13;;;;;;;65.82;44.97;;;153.80;2252.80;;;;;;4974256;28;20560;-64
2021/03/22 02:25:50;;;;;;;70.22;47.63;;;153.70;2252.80;;;;;;4973983;28;20027;-64
2021/03/22 02:28:39;;;;;;;75.80;49.10;;;153.60;2252.80;;;;;;4974102;28;20135;-65
2021/03/22 02:31:08;;;;;;;77.13;49.60;;;;;;;;;;4973827;28;20038;-65
2021/03/22 02:33:52;;;;;;;82.30;52.25;;;;;;;;;;4974105;28;20118;-65
2021/03/22 02:36:33;;;;;;;80.10;53.95;;;153.80;2252.80;;;;;;4973878;28;20053;-64
2021/03/22 02:39:00;;;;;;;85.07;53.60;;;;;;;;;;4973754;28;20038;-64
2021/03/22 02:41:40;;;;;;;83.55;55.95;;;;;;;;;;4973606;28;20576;-64
2021/03/22 02:44:08;;;;;;;81.57;52.80;;;153.70;2252.80;;;;;;4973809;28;20054;-63
2021/03/22 02:46:34;;;;;;;73.18;49.15;;;153.60;2252.80;;;;;;4973717;28;20058;-64
2021/03/22 02:49:04;;;;;;;68.43;46.70;;;;;;;;;;4973604;28;20066;-65
2021/03/22 02:51:49;;;;;;;70.93;47.25;;;;;;;;;;4973416;28;20125;-66
2021/03/22 02:54:32;;;;;;;71.22;46.70;;;;;;;;;;4973563;28;20442;-65
2021/03/22 02:57:02;;;;;;;66.20;44.33;;;;;;;;;;4991648;28;20560;-65
2021/03/22 02:59:34;;;;;;;63.40;42.42;;;;;;;;;;5014589;28;20033;-65
2021/03/22 03:02:04;;;;;;;66.47;42.15;;;;;;;;;;5014361;28;20037;-65
2021/03/22 03:04:34;;;;;;;63.22;43.90;;;;;;;;;;5014447;28;20040;-66
2021/03/22 03:07:03;;;;;;;61.45;40.75;;;154.10;2252.80;;;;;;5014488;28;20140;-65
2021/03/22 03:09:30;;;;;;;63.17;41.75;;;;;;;;;;5014119;28;20026;-65
2021/03/22 03:11:57;;;;;;;65.25;41.50;;;;;;;;;;5011736;28;20126;-67
2021/03/22 03:14:23;;;;;;;55.72;37.92;;;;;;;;;;5014194;28;20076;-67
2021/03/22 03:16:50;;;;;;;57.53;40.42;;;;;;;;;;5014159;28;20503;-64
2021/03/22 03:19:16;;;;;;;54.22;36.78;;;;;;;;;;5014675;28;20014;-66
2021/03/22 03:21:42;;;;;;;45.80;33.63;;;;;;;;;;5014204;28;20425;-67
2021/03/22 03:24:10;;;;;;;43.85;31.02;;;;;;;;;;5013958;28;20104;-66
2021/03/22 03:26:37;;;;;;;43.58;31.60;;;153.90;2252.80;;;;;;5013999;28;20032;-62
2021/03/22 03:29:05;;;;;;;40.05;28.60;;;153.60;2252.80;;;;;;5013300;28;20033;-63
2021/03/22 03:31:31;;;;;;;38.60;27.52;;;128.90;2252.80;;;;;;5013962;28;20026;-63
2021/03/22 03:33:57;;;;;;;39.28;27.38;;;128.80;2252.80;;;;;;5013905;28;20026;-63
2021/03/22 03:36:23;;;;;;;35.45;25.48;;;128.70;2252.80;;;;;;5014014;28;20494;-63
2021/03/22 03:38:49;;;;;;;37.00;26.38;;;128.80;2252.80;;;;;;5014117;28;20026;-63
2021/03/22 03:41:14;;;;;;;36.67;24.95;;;128.90;2252.80;;;;;;5012370;28;20044;-63
2021/03/22 03:43:40;;;;;;;35.15;26.10;;;128.90;2252.80;;;;;;5001357;28;20080;-63
2021/03/22 03:46:06;;;;;;;37.20;26.80;;;153.60;2252.80;;;;;;5013802;28;20088;-62
2021/03/22 03:48:32;;;;;;;33.65;26.85;;;;;;;;;;5013646;28;20362;-62
2021/03/22 03:51:00;;;;;;;38.50;27.88;;;;;;;;;;5013729;28;20026;-62
2021/03/22 03:53:27;;;;;;;40.17;29.50;;;153.70;2252.80;;;;;;5013656;28;20097;-63
2021/03/22 03:55:54;;;;;;;43.20;33.60;;;;;;;;;;5013675;28;20140;-62
2021/03/22 03:58:20;;;;;;;38.63;27.27;;;153.80;2252.80;;;;;;5013522;28;20029;-62
2021/03/22 04:00:48;;;;;;;40.72;28.02;;;153.60;2252.80;;;;;;5007936;28;20026;-62
2021/03/22 04:03:26;;;;;;;51.58;32.53;;;128.80;2252.80;;;;;;5007897;28;20540;-62
2021/03/22 04:05:58;;;;;;;43.85;30.35;;;153.60;2252.80;;;;;;5013561;28;20049;-62
2021/03/22 04:08:24;;;;;;;;;;;128.80;2252.80;;;;;;5013952;28;20176;-62
2021/03/22 04:10:51;;;;;;;46.17;31.13;;;128.90;2252.80;;;;;;5012929;28;19918;-68
2021/03/22 04:13:17;;;;;;;47.13;31.02;;;128.80;2252.80;;;;;;5013243;28;20124;-67
2021/03/22 04:15:43;;;;;;;41.38;30.88;;;128.90;2252.80;;;;;;5013011;28;20022;-64
2021/03/22 04:18:09;;;;;;;45.65;32.08;;;128.80;2252.80;;;;;;5013319;28;20032;-65
2021/03/22 04:20:34;;;;;;;51.40;33.13;;;128.90;2252.80;;;;;;5012879;28;20064;-64
2021/03/22 04:23:00;;;;;;;52.70;36.50;;;128.90;2252.80;;;;;;5013199;28;20373;-64
2021/03/22 04:25:26;;;;;;;54.88;37.25;;;128.90;2252.80;;;;;;5012979;28;20037;-64
2021/03/22 04:27:52;;;;;;;47.97;34.15;;;128.70;2252.80;;;;;;5012765;28;20026;-64
2021/03/22 04:30:18;;;;;;;44.25;31.20;;;128.40;2252.80;;;;;;5013085;28;20022;-64
2021/03/22 04:32:43;;;;;;;65.15;42.42;;;128.30;2252.80;;;;;;5012910;28;20034;-64
2021/03/22 04:35:10;;;;;;;53.95;35.83;;;128.30;2252.80;;;;;;5011887;28;20030;-63
2021/03/22 04:37:36;;;;;;;59.60;37.88;;;128.30;2252.80;;;;;;5012700;28;20014;-64
2021/03/22 04:40:02;;;;;;;44.92;31.58;;;;;;;;;;5012743;28;20109;-64
2021/03/22 04:42:27;;;;;;;42.92;30.15;;;128.60;2252.80;;;;;;5011700;28;20046;-64
2021/03/22 04:44:53;;;;;;;49.72;34.45;;;128.60;2252.80;;;;;;5012765;28;20779;-64
2021/03/22 04:47:19;;;;;;;44.78;31.85;;;128.50;2252.80;;;;;;5012789;28;20037;-64
2021/03/22 04:49:44;;;;;;;44.58;31.60;;;128.30;2252.80;;;;;;5012622;28;20029;-64
2021/03/22 04:52:10;;;;;;;58.28;37.78;;;128.50;2252.80;;;;;;5012865;28;20026;-63
2021/03/22 04:54:36;;;;;;;65.97;47.30;;;128.10;2252.80;;;;;;5012787;28;20026;-63
2021/03/22 04:57:21;;;;;;;43.85;31.02;;;;;;;;;;4998636;28;20036;-63
2021/03/22 04:59:46;;;;;;;39.38;29.58;;;128.20;2252.80;;;;;;5012610;28;20034;-64
2021/03/22 05:02:12;;;;;;;39.97;30.15;;;103.30;2227.20;;;;;;5002803;28;20503;-64
2021/03/22 05:04:38;;;;;;;39.85;31.52;;;128.00;2252.80;;;;;;5004495;28;20031;-61
2021/03/22 05:07:04;;;;;;;44.55;32.40;;;128.20;2252.80;;;;;;5010201;28;20022;-62
2021/03/22 05:09:30;;;;;;;49.15;34.47;;;;;;;;;;5012119;28;20028;-62
2021/03/22 05:11:56;;;;;;;56.38;37.95;;;;;;;;;;4998717;28;20042;-63
2021/03/22 05:14:22;;;;;;;56.63;38.15;;;;;;;;;;5012431;28;20018;-62
2021/03/22 05:16:48;;;;;;;52.67;37.20;;;;;;;;;;4999076;28;20547;-63
2021/03/22 05:19:14;;;;;;;55.35;37.95;;;;;;;;;;4994525;28;20126;-62
2021/03/22 05:21:40;;;;;;;59.65;38.80;;;;;;;;;;4992704;28;20034;-63
2021/03/22 05:24:06;;;;;;;63.33;41.78;;;;;;;;;;4992643;28;20029;-63
2021/03/22 05:26:32;;;;;;;67.47;44.67;;;;;;;;;;4994714;28;20362;-64
2021/03/22 05:28:58;;;;;;;76.72;50.08;;;;;;;;;;4996298;28;20014;-63
2021/03/22 05:31:24;;;;;;;64.97;44.35;;;;;;;;;;4997550;28;20464;-61
2021/03/22 05:33:51;;;;;;;60.05;40.55;;;;;;;;;;5006613;28;20084;-63
2021/03/22 05:36:17;;;;;;;66.90;47.33;;;;;;;;;;5006804;28;20030;-65
2021/03/22 05:38:43;;;;;;;70.80;48.88;;;153.70;2252.80;;;;;;5004812;28;20441;-66
2021/03/22 05:41:17;;;;;;;64.93;45.75;;;153.60;2252.80;;;;;;5011434;28;20062;-62
2021/03/22 05:43:50;;;;;;;71.55;49.85;;;;;;;;;;5012225;28;20030;-65
2021/03/22 05:46:22;;;;;;;71.45;50.83;;;154.00;2252.80;;;;;;5012088;28;20511;-66
2021/03/22 05:49:00;;;;;;;77.00;50.88;;;;;;;;;;5012277;28;20030;-65
2021/03/22 05:51:27;;;;;;;82.75;54.70;;;;;;;;;;5008459;28;20396;-64
2021/03/22 05:54:19;;;;;;;81.57;53.40;;;;;;;;;;5015156;28;20017;-67
2021/03/22 05:56:45;;;;;;;100.38;64.43;;;;;;;;;;5015580;28;20538;-65
2021/03/22 05:59:20;;;;;;;87.93;59.75;;;;;;;;;;5016037;28;20032;-63
2021/03/22 06:01:47;;;;;;;108.75;73.20;;;;;;;;;;5015536;28;20038;-65
2021/03/22 06:04:13;;;;;;;84.82;53.40;;;;;;;;;;5015730;28;20104;-64
2021/03/22 06:06:42;;;;;;;91.72;59.90;;;;;;;;;;5015518;28;20030;-64
2021/03/22 06:09:27;;;;;;;80.45;52.60;;;;;;;;;;5015537;28;20018;-65
2021/03/22 06:12:06;;;;;;;463.83;284.55;;;;;;;;;;5015561;28;20120;-65
2021/03/22 06:14:44;;;;;;;139.35;94.60;;;;;;;;;;5015559;28;20110;-64
2021/03/22 06:17:10;;;;;;;95.85;62.67;;;;;;;;;;5015214;28;20018;-63
2021/03/22 06:19:41;;;;;;;106.40;72.28;;;;;;;;;;5015337;28;20037;-64
2021/03/22 06:22:07;;;;;;;104.63;68.65;;;;;;;;;;5015089;28;20042;-64
2021/03/22 06:24:33;;;;;;;88.68;60.72;;;;;;;;;;5015401;28;20026;-64
2021/03/22 06:27:00;;;;;;;106.30;68.75;;;;;;;;;;5015060;28;20022;-64
2021/03/22 06:29:38;;;;;;;100.45;66.07;;;154.30;2124.80;;;;;;5015107;28;20042;-64
2021/03/22 06:32:12;;;;;;;80.60;55.25;;;154.30;2099.20;;;;;;5015039;28;20022;-63
2021/03/22 06:34:53;;;;;;;92.60;58.70;;;154.30;2099.20;;;;;;5002421;28;20030;-65
2021/03/22 06:37:24;;;;;;;96.88;61.20;;;;;;;;;;5015155;28;20060;-65
2021/03/22 06:40:04;;;;;;;90.68;58.17;;;179.30;2099.20;;;;;;5015259;28;20032;-64
2021/03/22 06:42:30;;;;;;;99.90;60.80;;;154.50;2150.40;;;;;;5003270;28;20461;-65
2021/03/22 06:44:55;;;;;;;91.70;58.95;;;154.50;2099.20;;;;;;5012496;28;20057;-65
2021/03/22 06:47:33;;;;;;;100.25;65.68;;;154.40;2124.80;;;;;;5015200;28;20036;-65
2021/03/22 06:50:13;;;;;;;107.00;72.53;;;;;;;;;;5014768;28;20018;-65
2021/03/22 06:52:40;;;;;;;81.45;54.38;;;;;;;;;;5014837;28;20125;-66
2021/03/22 06:55:23;;;;;;;80.68;52.08;;;;;;;;;;5014501;28;20096;-65
2021/03/22 06:57:52;;;;;;;70.65;48.00;;;;;;;;;;5014569;28;20113;-65
2021/03/22 07:00:21;;;;;;;65.75;44.97;;;;;;;;;;5014519;28;20017;-65
2021/03/22 07:02:47;;;;;;;62.33;44.67;;;;;;;;;;5014604;28;20042;-65
2021/03/22 07:05:28;;;;;;;68.95;48.22;;;;;;;;;;5011381;28;20027;-64
2021/03/22 07:07:59;;;;;;;59.83;44.05;;;;;;;;;;5014639;28;20088;-65
2021/03/22 07:10:28;;;;;;;59.40;40.83;;;154.50;2124.80;;;;;;5014204;28;20397;-65
2021/03/22 07:13:28;;;;;;;64.20;43.97;;;179.20;2176.00;;;;;;5014521;28;20064;-65
2021/03/22 07:15:56;;;;;;;58.53;44.35;;;;;;;;;;4973207;28;20071;-65
2021/03/22 07:18:24;;;;;;;52.00;39.25;;;;;;;;;;4973225;28;20035;-66
2021/03/22 07:20:55;;;;;;;52.67;39.58;;;;;;;;;;4973233;28;20027;-66
2021/03/22 07:23:24;;;;;;;47.83;35.20;;;;;;;;;;4973311;28;20030;-66
2021/03/22 07:25:52;;;;;;;60.92;42.33;;;;;;;;;;4973036;28;20082;-66
2021/03/22 07:28:30;;;;;;;55.03;38.05;;;;;;;;;;4973110;28;20473;-65
2021/03/22 07:31:09;;;;;;;67.60;43.60;;;;;;;;;;4972889;28;20467;-66
2021/03/22 07:33:38;;;;;;;49.50;36.33;;;;;;;;;;4972928;28;20077;-63
2021/03/22 07:36:11;;;;;;;48.28;36.38;;;;;;;;;;4972787;28;20027;-66
2021/03/22 07:38:49;;;;;;;42.65;32.33;;;;;;;;;;4956724;28;20485;-65
2021/03/22 07:41:34;;;;;;;54.65;36.65;;;;;;;;;;4972222;28;20074;-65
2021/03/22 07:44:18;;;;;;;43.97;31.33;;;;;;;;;;4972816;28;20512;-65
2021/03/22 07:46:56;;;;;;;74.30;51.42;;;;;;;;;;4972538;28;20067;-66
2021/03/22 07:49:33;;;;;;;88.40;68.70;;;;;;;;;;4972786;28;20035;-66
2021/03/22 07:52:02;;;;;;;44.85;35.38;;;;;;;;;;4993431;28;20045;-66
2021/03/22 07:54:56;;;;;;;38.55;30.88;;;205.30;1996.80;;;;;;5013827;28;20030;-64
2021/03/22 07:57:57;;;;;;;42.28;28.80;;;205.40;1945.60;;;;;;5001693;28;20122;-65
2021/03/22 08:00:42;;;;;;;37.40;27.30;;;;;;;;;;5013563;28;20034;-64
2021/03/22 08:03:23;;;;;;;36.70;28.95;;;205.30;1792.00;;;;;;5013659;28;20291;-63
2021/03/22 08:06:19;;;;;;;39.20;28.33;;;205.20;1894.40;;;;;;5013626;28;20028;-65
2021/03/22 08:09:01;;;;;;;48.45;34.45;;;205.20;1868.80;;;;;;5013247;28;20106;-66
2021/03/22 08:11:27;;;;;;;58.88;46.00;;;205.40;1894.40;;;;;;5013128;28;20050;-65
2021/03/22 08:14:02;;;;;;;43.85;34.08;;;205.50;1817.60;;;;;;5013179;28;20021;-65
2021/03/22 08:16:51;;;;;;;36.20;28.48;;;205.20;1868.80;;;;;;5013006;28;20061;-65
2021/03/22 08:19:46;;;;;;;36.03;27.88;;;205.10;1868.80;;;;;;5013104;28;20041;-65
2021/03/22 08:22:26;;;;;;;39.28;29.20;;;205.10;1843.20;;;;;;5010672;28;20042;-65
2021/03/22 08:25:36;;;;;;;34.00;28.02;;;205.20;1868.80;;;;;;5013148;28;20152;-65
2021/03/22 08:28:17;;;;;;;39.20;32.25;;;;;;;;;;4971778;28;20030;-66
2021/03/22 08:30:54;;;;;;;47.75;37.30;;;205.50;1868.80;;;;;;4971703;28;20524;-65
2021/03/22 08:33:27;;;;;;;43.00;32.80;;;205.40;1868.80;;;;;;4971909;28;20102;-65
2021/03/22 08:36:03;;;;;;;75.07;57.75;;;205.50;1817.60;;;;;;4971682;28;20035;-65
2021/03/22 08:38:31;;;;;;;85.68;76.10;;;205.30;1920.00;;;;;;4971760;28;20027;-64
2021/03/22 08:40:58;;;;;;;49.20;38.53;;;205.30;1920.00;;;;;;4971437;28;20106;-64
2021/03/22 08:43:39;;;;;;;48.92;36.20;;;205.00;1894.40;;;;;;4971481;28;20090;-63
2021/03/22 08:46:20;;;;;;;;;;;204.80;2022.40;;;;;;4972086;28;20082;-65
2021/03/22 08:48:46;;;;;;;51.65;39.83;;;179.80;2022.40;;;;;;4971459;28;19912;-65
2021/03/22 08:51:28;;;;;;;54.25;38.38;;;180.10;2022.40;;;;;;4971357;28;20039;-65
2021/03/22 08:53:56;;;;;;;50.45;34.58;;;180.10;2022.40;;;;;;4971389;28;20134;-65
2021/03/22 08:56:35;;;;;;;45.70;31.38;;;204.80;1971.20;;;;;;4971272;28;20074;-64
2021/03/22 08:59:06;;;;;;;46.22;33.58;;;;;;;;;;4971071;28;20139;-64
2021/03/22 09:01:41;;;;;;;50.07;33.87;;;179.90;1971.20;;;;;;4978949;28;20050;-64
2021/03/22 09:04:38;;;;;;;75.05;48.15;;;179.80;2099.20;;;;;;5012548;28;20380;-65
2021/03/22 09:07:09;;;;;;;58.90;39.10;;;179.80;1996.80;;;;;;4971257;28;20043;-64
2021/03/22 09:09:39;;;;;;;58.47;39.70;;;179.70;2048.00;;;;;;4970878;28;20094;-65
2021/03/22 09:12:26;;;;;;;46.42;35.00;;;179.70;2073.60;;;;;;4971120;28;20045;-65
2021/03/22 09:14:52;;;;;;;53.95;38.95;;;179.80;2022.40;;;;;;4971078;28;20039;-65
2021/03/22 09:17:41;;;;;;;55.25;38.85;;;179.90;2099.20;;;;;;4971033;28;20038;-65
2021/03/22 09:20:15;;;;;;;48.70;39.30;;;179.70;2227.20;;;;;;4971099;28;20102;-65
2021/03/22 09:22:50;;;;;;;53.45;42.40;;;179.90;2201.60;;;;;;4971076;28;20424;-65
2021/03/22 09:25:45;;;;;;;51.10;39.25;;;179.90;2201.60;;;;;;4971105;28;20031;-65
2021/03/22 09:28:26;;;;;;;50.10;38.92;;;180.10;2201.60;;;;;;4972989;28;20027;-65
2021/03/22 09:30:59;;;;;;;47.33;38.40;;;180.10;2176.00;;;;;;4974947;28;20035;-65
2021/03/22 09:33:49;;;;;;;48.13;35.60;;;179.60;2227.20;;;;;;4975043;28;20042;-64
2021/03/22 09:36:36;;;;;;;41.60;32.83;;;179.60;2227.20;;;;;;4975015;28;20049;-65
2021/03/22 09:39:14;;;;;;;46.03;35.42;;;179.70;2252.80;;;;;;4974595;28;20027;-65
2021/03/22 09:41:52;;;;;;;56.20;42.78;;;179.70;2201.60;;;;;;4978233;28;20126;-65
2021/03/22 09:44:20;;;;;;;38.95;29.20;;;179.80;2252.80;;;;;;5011206;28;20034;-64
2021/03/22 09:47:15;;;;;;;45.95;33.78;;;179.80;2227.20;;;;;;5014361;28;20018;-67
2021/03/22 09:49:59;;;;;;;37.08;28.05;;;179.80;2252.80;;;;;;5015553;28;20022;-65
2021/03/22 09:52:27;;;;;;;40.83;29.70;;;179.90;2252.80;;;;;;5015725;28;20025;-65
2021/03/22 09:54:54;;;;;;;38.80;28.88;;;179.60;2252.80;;;;;;5015622;28;20022;-65
2021/03/22 09:57:34;;;;;;;41.88;29.33;;;179.90;2252.80;;;;;;5015710;28;20036;-65
2021/03/22 10:00:22;;;;;;;42.63;31.25;;;180.00;2176.00;;;;;;5015345;28;20025;-65
2021/03/22 10:03:11;;;;;;;53.72;36.33;;;179.90;2176.00;;;;;;5015495;28;20116;-66
2021/03/22 10:05:46;;;;;;;56.53;39.95;;;180.00;2201.60;;;;;;5015259;28;20030;-66
2021/03/22 10:08:11;;;;;;;59.15;40.08;;;180.00;2252.80;;;;;;5015344;28;20076;-65
2021/03/22 10:10:59;;;;;;;71.60;45.88;;;204.80;2124.80;;;;;;5014964;28;20046;-67
2021/03/22 10:13:29;;;;;;;50.67;38.88;;;180.00;2201.60;;;;;;5015723;28;20034;-66
2021/03/22 10:16:23;;;;;;;52.25;35.80;;;180.00;2150.40;;;;;;5002120;28;20014;-65
2021/03/22 10:18:53;;;;;;;40.75;32.95;;;179.90;2252.80;;;;;;5015054;28;20551;-66
2021/03/22 10:21:32;;;;;;;51.72;36.60;;;179.90;2252.80;;;;;;5015150;28;20124;-66
2021/03/22 10:24:21;;;;;;;40.42;29.27;;;180.00;2252.80;;;;;;5013323;28;20049;-65
2021/03/22 10:26:50;;;;;;;42.20;30.08;;;179.70;2227.20;;;;;;5014806;28;20041;-67
2021/03/22 10:29:22;;;;;;;39.85;28.95;;;179.60;2201.60;;;;;;5014813;28;20139;-64
2021/03/22 10:31:49;;;;;;;45.50;34.33;;;179.60;2227.20;;;;;;5015162;28;20029;-66
2021/03/22 10:34:24;;;;;;;51.95;35.92;;;179.70;2227.20;;;;;;5014850;28;20018;-66
2021/03/22 10:36:50;;;;;;;43.47;31.17;;;180.10;2252.80;;;;;;5014880;28;20097;-66
2021/03/22 10:39:28;;;;;;;45.35;34.38;;;180.10;2176.00;;;;;;5014789;28;20049;-65
2021/03/22 10:41:54;;;;;;;56.28;40.13;;;204.80;2201.60;;;;;;5013322;28;20418;-65
2021/03/22 10:44:26;;;;;;;56.83;41.72;;;204.90;2150.40;;;;;;5014799;28;20026;-66
2021/03/22 10:47:10;;;;;;;61.28;45.35;;;204.90;2227.20;;;;;;5014971;28;20372;-66
2021/03/22 10:49:37;;;;;;;59.28;47.35;;;204.80;2227.20;;;;;;5014984;28;20022;-65
2021/03/22 10:52:18;;;;;;;45.15;37.38;;;204.80;2227.20;;;;;;5014780;28;20021;-65
2021/03/22 10:54:46;;;;;;;40.20;29.60;;;204.80;2176.00;;;;;;5014576;28;20068;-65
2021/03/22 10:57:35;;;;;;;43.22;31.55;;;180.10;2252.80;;;;;;5014708;28;20014;-66
2021/03/22 11:00:24;;;;;;;51.05;35.63;;;204.80;2252.80;;;;;;5014615;28;20056;-66
2021/03/22 11:02:51;;;;;;;55.38;38.30;;;179.80;2227.20;;;;;;5014403;28;20420;-66
2021/03/22 11:05:19;;;;;;;49.13;36.17;;;180.10;2227.20;;;;;;5014276;28;20376;-66
2021/03/22 11:08:03;;;;;;;40.85;31.77;;;180.00;2227.20;;;;;;5014110;28;20033;-66
2021/03/22 11:10:30;;;;;;;46.35;33.58;;;179.90;2252.80;;;;;;5013879;28;20053;-66
2021/03/22 11:12:56;;;;;;;57.13;38.88;;;179.80;2252.80;;;;;;5014290;28;20101;-63
2021/03/22 11:15:33;;;;;;;52.33;37.75;;;180.10;2252.80;;;;;;5013806;28;20034;-64
2021/03/22 11:18:00;;;;;;;49.35;35.45;;;179.60;2252.80;;;;;;5014560;28;20382;-66
2021/03/22 11:20:29;;;;;;;47.00;31.88;;;179.90;2252.80;;;;;;5014039;28;20022;-65
2021/03/22 11:23:15;;;;;;;61.90;41.50;;;179.90;2252.80;;;;;;5014145;28;20559;-65
2021/03/22 11:25:42;;;;;;;59.83;41.55;;;180.10;2252.80;;;;;;5012399;28;20090;-65
2021/03/22 11:28:28;;;;;;;71.28;43.20;;;180.10;2252.80;;;;;;5013780;28;20022;-65
2021/03/22 11:30:53;;;;;;;54.63;37.10;;;205.00;2252.80;;;;;;5014087;28;20069;-63
2021/03/22 11:33:56;;;;;;;64.60;42.40;;;204.80;2252.80;;;;;;5013957;28;20594;-65
2021/03/22 11:36:32;;;;;;;64.97;39.70;;;204.80;2227.20;;;;;;5000999;28;20033;-63
2021/03/22 11:39:08;;;;;;;60.03;38.58;;;204.80;2227.20;;;;;;5013650;28;20033;-65
2021/03/22 11:41:44;;;;;;;47.22;32.28;;;204.90;2252.80;;;;;;5010133;28;20048;-64
2021/03/22 11:44:14;;;;;;;57.70;38.13;;;204.80;2252.80;;;;;;5003865;28;20542;-64
2021/03/22 11:46:40;;;;;;;47.35;32.03;;;204.80;2227.20;;;;;;5014080;28;20080;-64
2021/03/22 11:49:29;;;;;;;53.08;33.08;;;180.10;2227.20;;;;;;5013571;28;20361;-64
2021/03/22 11:51:54;;;;;;;57.55;35.67;;;180.00;2252.80;;;;;;5013195;28;20425;-62
2021/03/22 11:54:20;;;;;;;46.42;32.20;;;180.10;2252.80;;;;;;5013468;28;20101;-64
2021/03/22 11:57:01;;;;;;;55.03;37.65;;;179.90;2252.80;;;;;;5013359;28;20025;-64
2021/03/22 11:59:27;;;;;;;39.93;28.53;;;204.80;2252.80;;;;;;5013184;28;20450;-65
2021/03/22 12:02:12;;;;;;;48.92;28.98;;;179.90;2252.80;;;;;;5013135;28;20493;-65
2021/03/22 12:04:39;;;;;;;57.00;38.42;;;179.70;2252.80;;;;;;5013417;28;20131;-65
2021/03/22 12:07:09;;;;;;;62.53;42.78;;;179.90;2252.80;;;;;;5013173;28;20112;-65
2021/03/22 12:09:38;;;;;;;42.70;28.05;;;180.10;2252.80;;;;;;5013233;28;20112;-65
2021/03/22 12:12:12;;;;;;;48.92;30.63;;;179.90;2252.80;;;;;;5013664;28;20042;-65
2021/03/22 12:14:37;;;;;;;40.80;26.20;;;180.00;2252.80;;;;;;5013305;28;20029;-64
2021/03/22 12:17:09;;;;;;;41.65;25.80;;;179.90;2252.80;;;;;;5013171;28;20452;-63
2021/03/22 12:19:38;;;;;;;65.55;46.53;;;180.00;2252.80;;;;;;5013117;28;20446;-65
2021/03/22 12:22:05;;;;;;;53.88;38.63;;;180.00;2252.80;;;;;;5012896;28;20508;-65
2021/03/22 12:24:30;;;;;;;61.47;41.05;;;180.00;2252.80;;;;;;5013634;28;20366;-65
2021/03/22 12:26:56;;;;;;;115.47;80.10;;;180.00;2252.80;;;;;;5013021;28;20033;-65
2021/03/22 12:29:22;;;;;;;110.82;76.38;;;180.00;2252.80;;;;;;5012802;28;20018;-65
2021/03/22 12:31:50;;;;;;;96.03;66.35;;;180.10;2252.80;;;;;;5012977;28;20390;-65
2021/03/22 12:34:22;;;;;;;75.60;49.05;;;179.90;2252.80;;;;;;5012815;28;20135;-65
2021/03/22 12:36:49;;;;;;;78.75;49.47;;;179.90;2252.80;;;;;;5012953;28;20030;-65
2021/03/22 12:39:27;;;;;;;52.55;37.28;;;179.90;2252.80;;;;;;5012585;28;20156;-65
2021/03/22 12:41:58;;;;;;;67.22;44.00;;;179.50;2252.80;;;;;;5006394;28;20080;-65
2021/03/22 12:44:24;;;;;;;77.68;46.60;;;179.60;2252.80;;;;;;5005966;28;20064;-65
2021/03/22 12:46:49;;;;;;;87.20;56.78;;;179.50;2252.80;;;;;;5012467;28;20536;-65
2021/03/22 12:49:20;;;;;;;225.68;133.90;;;179.60;2252.80;;;;;;5012511;28;20018;-66
2021/03/22 12:51:47;;;;;;;96.10;67.32;;;179.60;2252.80;;;;;;5012665;28;20485;-66
2021/03/22 12:54:13;;;;;;;113.50;67.28;;;179.40;2252.80;;;;;;5008131;28;20042;-65
2021/03/22 12:56:39;;;;;;;141.52;79.75;;;179.60;2252.80;;;;;;5008506;28;20033;-65